Time;durP1;ratioP1;P1;durP2;ratioP2;P2;SDS_P1;SDS_P2;PMS_P1;PMS_P2;Temp;Humidity;BMP_temperature;BMP_pressure;BME280_temperature;BME280_humidity;BME280_pressure;Samples;Min_cycle;Max_cycle;Signal;HPM_P1;HPM_P2
2024/02/10 00:01:46;;;;;;;;;50.40;40.80;;;;;11.06;100.00;96732.72;6257055;27;96825;-55
2024/02/10 00:04:53;;;;;;;;;51.25;40.50;;;;;11.12;100.00;96736.22;6242115;27;96706;-55
2024/02/10 00:07:57;;;;;;;;;51.00;40.00;;;;;11.15;100.00;96744.53;6254330;27;97425;-55
2024/02/10 00:11:00;;;;;;;;;51.00;41.00;;;;;11.19;100.00;96742.91;6234418;27;97636;-55
2024/02/10 00:14:04;;;;;;;;;52.50;41.50;;;;;11.23;100.00;96753.97;6237888;27;96348;-54
2024/02/10 00:17:09;;;;;;;;;50.00;39.75;;;;;11.13;100.00;96732.44;6245647;27;96462;-53
2024/02/10 00:20:15;;;;;;;;;49.40;39.60;;;;;11.29;100.00;96759.03;6258700;27;96908;-52
2024/02/10 00:23:19;;;;;;;;;48.80;39.00;;;;;11.29;100.00;96759.03;6253971;27;96794;-52
2024/02/10 00:26:22;;;;;;;;;47.00;37.00;;;;;11.30;100.00;96760.66;6252633;27;97227;-53
2024/02/10 00:29:25;;;;;;;;;47.00;36.00;;;;;11.33;100.00;96764.69;6239605;27;96328;-53
2024/02/10 00:32:29;;;;;;;;;47.80;39.00;;;;;11.37;100.00;96767.63;6240197;27;96377;-53
2024/02/10 00:35:33;;;;;;;;;49.00;39.00;;;;;11.37;100.00;96768.44;6240257;27;97356;-53
2024/02/10 00:38:40;;;;;;;;;50.00;40.00;;;;;11.33;100.00;96755.78;6240003;27;96585;-52
2024/02/10 00:41:45;;;;;;;;;51.50;39.00;;;;;11.28;100.00;96767.41;6240454;28;96406;-52
2024/02/10 00:44:50;;;;;;;;;47.40;38.80;;;;;11.25;100.00;96765.25;6240429;28;96246;-52
2024/02/10 00:47:53;;;;;;;;;48.40;39.00;;;;;11.24;100.00;96772.53;6262241;27;96823;-52
2024/02/10 00:51:01;;;;;;;;;52.75;41.25;;;;;11.16;100.00;96769.63;6265483;27;96799;-53
2024/02/10 00:54:04;;;;;;;;;49.60;40.00;;;;;11.07;100.00;96773.97;6265631;27;96272;-52
2024/02/10 00:57:10;;;;;;;;;52.00;42.00;;;;;11.03;100.00;96768.34;6262521;27;96589;-52
2024/02/10 01:00:16;;;;;;;;;53.50;40.75;;;;;11.02;100.00;96772.09;6265594;27;96418;-53
2024/02/10 01:03:19;;;;;;;;;51.80;42.40;;;;;10.86;100.00;96767.84;6255257;27;96343;-53
2024/02/10 01:06:26;;;;;;;;;52.60;41.80;;;;;10.89;100.00;96767.31;6258515;27;96507;-52
2024/02/10 01:09:30;;;;;;;;;51.60;41.60;;;;;10.96;100.00;96765.13;6247523;27;96477;-53
2024/02/10 01:12:33;;;;;;;;;53.40;41.40;;;;;10.94;100.00;96759.22;6260040;27;97056;-53
2024/02/10 01:15:36;;;;;;;;;54.00;42.00;;;;;11.03;100.00;96751.34;6264939;27;96434;-53
2024/02/10 01:18:40;;;;;;;;;52.00;42.00;;;;;11.12;100.00;96755.09;6264537;27;96471;-53
2024/02/10 01:21:44;;;;;;;;;57.00;46.00;;;;;11.15;100.00;96754.50;6264797;27;96287;-52
2024/02/10 01:24:48;;;;;;;;;55.00;44.80;;;;;11.23;100.00;96746.69;6282359;27;96331;-55
2024/02/10 01:27:51;;;;;;;;;57.80;45.00;;;;;11.28;100.00;96745.84;6271590;27;96326;-55
2024/02/10 01:30:56;;;;;;;;;58.60;45.60;;;;;11.36;100.00;96741.75;6274213;27;96437;-55
2024/02/10 01:33:59;;;;;;;;;56.33;45.00;;;;;11.45;100.00;96740.06;6291231;27;96349;-56
2024/02/10 01:37:04;;;;;;;;;53.40;43.20;;;;;11.46;100.00;96745.19;6292745;27;96283;-55
2024/02/10 01:40:11;;;;;;;;;53.75;43.00;;;;;11.35;100.00;96734.72;6287866;27;96326;-55
2024/02/10 01:43:14;;;;;;;;;57.50;44.50;;;;;11.55;100.00;96743.50;6289676;27;97008;-55
2024/02/10 01:46:21;;;;;;;;;61.60;45.40;;;;;11.57;100.00;96748.63;6288466;27;96469;-55
2024/02/10 01:49:25;;;;;;;;;62.40;47.00;;;;;11.57;100.00;96745.94;6288419;27;96278;-55
2024/02/10 01:52:30;;;;;;;;;61.75;47.75;;;;;11.61;100.00;96737.00;6249077;27;96821;-55
2024/02/10 01:55:33;;;;;;;;;61.00;46.00;;;;;11.63;100.00;96742.91;6291591;27;96588;-55
2024/02/10 01:58:39;;;;;;;;;60.25;46.25;;;;;11.65;100.00;96734.53;6290390;27;96527;-55
2024/02/10 02:01:48;;;;;;;;;58.00;47.00;;;;;11.67;100.00;96738.59;6313413;22;97835;-54
2024/02/10 02:04:53;;;;;;;;;62.25;48.00;;;;;11.59;100.00;96746.44;6289504;27;96382;-56
2024/02/10 02:07:59;;;;;;;;;59.60;46.00;;;;;11.63;100.00;96739.44;6270525;27;96677;-58
2024/02/10 02:11:02;;;;;;;;;58.60;46.00;;;;;11.70;100.00;96737.19;6259906;27;96398;-58
2024/02/10 02:14:07;;;;;;;;;59.75;46.00;;;;;11.75;100.00;96734.50;6287969;27;96282;-58
2024/02/10 02:17:10;;;;;;;;;61.50;46.50;;;;;11.79;100.00;96727.44;6288747;27;96431;-58
2024/02/10 02:20:13;;;;;;;;;61.20;46.40;;;;;11.82;100.00;96726.09;6288635;27;96391;-58
2024/02/10 02:23:19;;;;;;;;;60.00;46.50;;;;;11.84;100.00;96724.72;6280767;27;96451;-57
2024/02/10 02:26:22;;;;;;;;;61.00;47.00;;;;;11.81;100.00;96721.78;6263597;27;96293;-57
2024/02/10 02:29:25;;;;;;;;;61.60;46.60;;;;;11.80;100.00;96717.44;6263111;27;96347;-57
2024/02/10 02:32:29;;;;;;;;;63.00;48.60;;;;;11.73;100.00;96703.50;6263175;27;96396;-57
2024/02/10 02:35:32;;;;;;;;;62.50;49.00;;;;;11.84;100.00;96715.78;6272703;27;96387;-56
2024/02/10 02:38:38;;;;;;;;;64.80;48.60;;;;;11.86;100.00;96711.75;6287824;27;96345;-56
2024/02/10 02:41:41;;;;;;;;;61.25;47.00;;;;;11.87;100.00;96702.56;6288681;27;96910;-57
2024/02/10 02:44:45;;;;;;;;;62.20;49.20;;;;;11.91;100.00;96706.31;6269923;27;96453;-57
2024/02/10 02:47:48;;;;;;;;;59.60;46.00;;;;;11.83;100.00;96695.28;6262944;27;96337;-57
2024/02/10 02:50:51;;;;;;;;;62.00;47.60;;;;;11.93;100.00;96697.91;6262542;27;97069;-56
2024/02/10 02:53:57;;;;;;;;;62.60;48.00;;;;;11.91;100.00;96705.50;6274319;27;96398;-56
2024/02/10 02:57:00;;;;;;;;;62.00;48.40;;;;;11.79;100.00;96689.66;6251796;27;96767;-57
2024/02/10 03:00:05;;;;;;;;;62.40;48.00;;;;;11.92;100.00;96699.81;6287828;27;96816;-57
2024/02/10 03:03:08;;;;;;;;;62.00;48.00;;;;;11.93;100.00;96695.19;6282067;27;96407;-57
2024/02/10 03:06:12;;;;;;;;;64.00;49.00;;;;;11.73;100.00;96669.19;6261876;27;96996;-57
2024/02/10 03:09:17;;;;;;;;;64.60;51.00;;;;;11.92;100.00;96696.31;6285098;27;96431;-57
2024/02/10 03:12:20;;;;;;;;;65.00;50.00;;;;;11.74;100.00;96697.78;6287312;27;96410;-56
2024/02/10 03:15:25;;;;;;;;;67.00;52.00;;;;;11.61;100.00;96695.72;6266167;27;96383;-52
2024/02/10 03:18:28;;;;;;;;;65.60;51.40;;;;;11.40;100.00;96689.66;6264428;27;96948;-52
2024/02/10 03:21:35;;;;;;;;;64.00;50.00;;;;;11.46;100.00;96702.03;6264303;27;96320;-53
2024/02/10 03:24:42;;;;;;;;;67.60;52.00;;;;;11.52;100.00;96700.09;6265261;27;97084;-53
2024/02/10 03:27:45;;;;;;;;;68.60;51.40;;;;;11.45;100.00;96702.28;6264204;27;96378;-53
2024/02/10 03:30:49;;;;;;;;;66.25;51.25;;;;;11.47;100.00;96692.84;6258907;27;96387;-53
2024/02/10 03:33:53;;;;;;;;;66.60;51.00;;;;;11.51;100.00;96695.78;6262752;27;96420;-53
2024/02/10 03:36:56;;;;;;;;;64.75;49.25;;;;;11.43;100.00;96702.59;6263800;27;97721;-53
2024/02/10 03:40:01;;;;;;;;;65.00;49.50;;;;;11.36;100.00;96679.69;6263822;27;96494;-53
2024/02/10 03:43:04;;;;;;;;;64.00;50.00;;;;;11.46;100.00;96702.03;6267674;27;96391;-53
2024/02/10 03:46:07;;;;;;;;;65.40;50.40;;;;;11.52;100.00;96692.00;6258240;27;96709;-55
2024/02/10 03:49:12;;;;;;;;;66.00;50.00;;;;;11.60;100.00;96705.69;6272126;27;96997;-53
2024/02/10 03:52:16;;;;;;;;;62.75;51.00;;;;;11.62;100.00;96711.63;6269011;27;96437;-54
2024/02/10 03:55:20;;;;;;;;;63.40;49.40;;;;;11.57;100.00;96711.66;6262087;27;96253;-53
2024/02/10 03:58:25;;;;;;;;;63.50;50.25;;;;;11.46;100.00;96709.31;6262234;27;96229;-53
2024/02/10 04:01:28;;;;;;;;;64.00;50.00;;;;;11.60;100.00;96710.28;6273742;27;96520;-53
2024/02/10 04:04:31;;;;;;;;;61.50;49.00;;;;;11.61;100.00;96715.41;6281021;27;96325;-53
2024/02/10 04:07:35;;;;;;;;;62.40;50.00;;;;;11.67;100.00;96708.91;6243571;27;96237;-53
2024/02/10 04:10:41;;;;;;;;;69.40;53.00;;;;;11.52;100.00;96708.19;6248142;27;96558;-52
2024/02/10 04:13:45;;;;;;;;;69.75;52.75;;;;;11.43;100.00;96717.97;6262409;27;96312;-53
2024/02/10 04:16:52;;;;;;;;;71.40;53.00;;;;;11.46;100.00;96715.50;6262966;27;97101;-53
2024/02/10 04:19:57;;;;;;;;;68.20;52.00;;;;;11.51;100.00;96709.28;6251303;27;97075;-52
2024/02/10 04:23:03;;;;;;;;;70.00;55.00;;;;;11.48;100.00;96713.34;6257154;27;96490;-54
2024/02/10 04:26:07;;;;;;;;;69.40;53.40;;;;;11.43;100.00;96710.69;6262632;27;96869;-60
2024/02/10 04:29:14;;;;;;;;;69.00;52.00;;;;;11.44;100.00;96712.28;6280184;27;96747;-59
2024/02/10 04:32:17;;;;;;;;;66.60;52.00;;;;;11.52;100.00;96708.19;6307015;27;96323;-60
2024/02/10 04:35:22;;;;;;;;;61.00;48.00;;;;;11.60;100.00;96719.19;6307353;27;96404;-59
2024/02/10 04:38:25;;;;;;;;;62.50;48.75;;;;;11.68;100.00;96717.78;6307137;27;96348;-60
2024/02/10 04:41:30;;;;;;;;;61.00;49.00;;;;;11.69;100.00;96712.09;6285147;27;96240;-60
2024/02/10 04:44:33;;;;;;;;;62.00;48.00;;;;;11.73;100.00;96709.66;6282014;27;96317;-59
2024/02/10 04:47:36;;;;;;;;;59.50;45.00;;;;;11.80;100.00;96707.47;6280947;27;96929;-60
2024/02/10 04:50:41;;;;;;;;;57.80;45.00;;;;;11.91;100.00;96703.59;6276713;27;96452;-58
2024/02/10 04:53:44;;;;;;;;;49.00;39.00;;;;;11.99;100.00;96705.69;6280926;27;96295;-60
2024/02/10 04:56:49;;;;;;;;;50.25;40.75;;;;;12.07;100.00;96704.28;6273460;27;96921;-59
2024/02/10 04:59:52;;;;;;;;;51.00;41.00;;;;;12.10;100.00;96703.69;6273781;27;96815;-60
2024/02/10 05:02:56;;;;;;;;;50.40;40.60;;;;;12.17;100.00;96701.47;6306109;27;96691;-59
2024/02/10 05:05:59;;;;;;;;;49.75;40.50;;;;;12.24;100.00;96691.13;6305905;27;96362;-60
2024/02/10 05:09:02;;;;;;;;;49.80;38.80;;;;;12.30;100.00;96694.59;6305115;27;96362;-59
2024/02/10 05:12:07;;;;;;;;;50.25;42.25;;;;;12.28;100.00;96696.78;6280520;27;96353;-60
2024/02/10 05:15:14;;;;;;;;;54.00;42.40;;;;;12.30;100.00;96692.69;6281427;27;96663;-59
2024/02/10 05:18:17;;;;;;;;;56.40;45.00;;;;;12.18;100.00;96697.66;6306691;27;96365;-60
2024/02/10 05:21:22;;;;;;;;;58.67;46.00;;;;;12.17;100.00;96681.78;6284231;27;96354;-60
2024/02/10 05:24:29;;;;;;;;;56.00;44.00;;;;;12.12;100.00;96682.59;6280331;27;96137;-60
2024/02/10 05:27:34;;;;;;;;;53.50;43.00;;;;;12.17;100.00;96690.66;6280330;27;96375;-59
2024/02/10 05:30:37;;;;;;;;;53.00;43.00;;;;;12.17;100.00;96687.94;6291685;27;96403;-60
2024/02/10 05:33:42;;;;;;;;;52.20;43.00;;;;;12.12;100.00;96680.72;6300589;27;98335;-54
2024/02/10 05:36:46;;;;;;;;;49.00;40.00;;;;;12.31;100.00;96699.72;6266643;27;97168;-53
2024/02/10 05:39:49;;;;;;;;;49.00;40.00;;;;;12.36;100.00;96696.97;6273306;27;96402;-53
2024/02/10 05:42:58;;;;;;;;;49.60;40.00;;;;;12.42;100.00;96698.50;6271888;27;98655;-53
2024/02/10 05:46:06;;;;;;;;;57.75;44.00;;;;;12.45;100.00;96703.34;6266316;27;96356;-55
2024/02/10 05:49:10;;;;;;;;;54.75;44.00;;;;;12.49;100.00;96703.59;6258757;27;96742;-54
2024/02/10 05:52:13;;;;;;;;;52.80;43.00;;;;;12.51;100.00;96709.50;6290746;27;96472;-54
2024/02/10 05:55:21;;;;;;;;;49.00;40.00;;;;;12.51;100.00;96698.72;6283015;27;97489;-54
2024/02/10 05:58:27;;;;;;;;;47.00;39.00;;;;;12.47;100.00;96689.53;6287765;27;96609;-55
2024/02/10 06:01:31;;;;;;;;;45.00;36.00;;;;;12.45;100.00;96692.53;6263032;27;99844;-54
2024/02/10 06:04:34;;;;;;;;;49.25;40.25;;;;;12.54;100.00;96707.03;6254653;27;96804;-54
2024/02/10 06:07:38;;;;;;;;;50.20;40.00;;;;;12.55;100.00;96707.84;6250447;27;96219;-54
2024/02/10 06:10:42;;;;;;;;;52.00;43.00;;;;;12.60;100.00;96705.09;6254445;27;96318;-54
2024/02/10 06:13:50;;;;;;;;;56.00;44.00;;;;;12.61;100.00;96700.50;6272959;27;96838;-54
2024/02/10 06:16:55;;;;;;;;;59.00;47.00;;;;;12.62;100.00;96719.09;6260045;27;96267;-54
2024/02/10 06:19:59;;;;;;;;;62.80;48.40;;;;;12.54;100.00;96715.16;6242591;27;96751;-54
2024/02/10 06:23:03;;;;;;;;;61.60;46.60;;;;;12.51;100.00;96714.91;6248666;27;96444;-54
2024/02/10 06:26:10;;;;;;;;;63.20;49.20;;;;;12.51;100.00;96718.41;6245855;27;97543;-54
2024/02/10 06:29:15;;;;;;;;;59.40;46.60;;;;;12.48;100.00;96712.78;6240605;28;96341;-53
2024/02/10 06:32:20;;;;;;;;;66.80;50.60;;;;;12.50;100.00;96722.22;6252540;27;96340;-53
2024/02/10 06:35:24;;;;;;;;;63.00;50.00;;;;;12.49;100.00;96711.69;6252296;27;97565;-53
2024/02/10 06:38:32;;;;;;;;;62.00;48.80;;;;;12.48;100.00;96715.47;6239580;27;96438;-54
2024/02/10 06:41:35;;;;;;;;;62.60;48.80;;;;;12.50;100.00;96716.81;6250675;27;96859;-54
2024/02/10 06:44:41;;;;;;;;;61.40;48.00;;;;;12.53;100.00;96723.53;6258621;27;96833;-57
2024/02/10 06:47:45;;;;;;;;;60.40;47.20;;;;;12.51;100.00;96723.81;6245282;27;96913;-57
2024/02/10 06:50:49;;;;;;;;;62.00;48.00;;;;;12.55;100.00;96727.56;6247243;27;96533;-57
2024/02/10 06:53:58;;;;;;;;;64.00;50.00;;;;;12.56;100.00;96734.56;6237780;27;97318;-57
2024/02/10 06:57:01;;;;;;;;;61.80;46.00;;;;;12.57;100.00;96735.38;6236336;28;96369;-57
2024/02/10 07:00:08;;;;;;;;;60.00;46.00;;;;;12.58;100.00;96737.81;6217349;28;100082;-57
2024/02/10 07:03:14;;;;;;;;;58.80;46.60;;;;;12.59;100.00;96750.22;6236998;28;96476;-57
2024/02/10 07:06:17;;;;;;;;;57.00;45.00;;;;;12.61;100.00;96741.03;6234766;27;96315;-57
2024/02/10 07:09:22;;;;;;;;;58.20;46.00;;;;;12.63;100.00;96734.22;6233306;27;96447;-57
2024/02/10 07:12:25;;;;;;;;;57.00;44.80;;;;;12.65;100.00;96736.66;6256883;27;96334;-57
2024/02/10 07:15:30;;;;;;;;;56.00;45.00;;;;;12.66;100.00;96746.38;6247013;27;97101;-57
2024/02/10 07:18:41;;;;;;;;;60.80;46.00;;;;;12.68;100.00;96736.88;6234543;28;96438;-57
2024/02/10 07:21:46;;;;;;;;;56.00;45.00;;;;;12.62;100.00;96732.63;6236231;28;96428;-57
2024/02/10 07:24:50;;;;;;;;;59.60;46.00;;;;;12.64;100.00;96733.16;6236671;28;96392;-56
2024/02/10 07:28:00;;;;;;;;;60.00;46.40;;;;;12.66;100.00;96733.66;6246814;27;97038;-57
2024/02/10 07:31:05;;;;;;;;;56.00;45.40;;;;;12.62;100.00;96716.41;6236905;28;96353;-56
2024/02/10 07:34:08;;;;;;;;;55.00;42.00;;;;;12.56;100.00;96715.66;6236661;28;96481;-56
2024/02/10 07:37:12;;;;;;;;;53.00;42.00;;;;;12.58;100.00;96728.88;6236918;27;96404;-58
2024/02/10 07:40:15;;;;;;;;;55.40;43.40;;;;;12.57;100.00;96716.44;6236566;28;96409;-58
2024/02/10 07:43:19;;;;;;;;;55.00;44.00;;;;;12.53;100.00;96721.63;6236446;28;96654;-57
2024/02/10 07:46:24;;;;;;;;;53.00;43.00;;;;;12.54;100.00;96717.84;6241287;27;97383;-57
2024/02/10 07:49:28;;;;;;;;;54.67;44.00;;;;;12.44;100.00;96723.34;6247851;27;96272;-56
2024/02/10 07:52:31;;;;;;;;;57.60;45.60;;;;;12.46;100.00;96720.38;6248990;27;96470;-56
2024/02/10 07:55:36;;;;;;;;;56.00;44.00;;;;;12.40;100.00;96727.72;6253350;27;96711;-59
2024/02/10 07:58:40;;;;;;;;;60.20;45.80;;;;;12.42;100.00;96714.72;6254883;27;96601;-59
2024/02/10 08:01:46;;;;;;;;;54.00;44.00;;;;;12.45;100.00;96713.34;6249954;28;96548;-58
2024/02/10 08:04:51;;;;;;;;;54.33;44.00;;;;;12.42;100.00;96716.63;6250352;27;96473;-59
2024/02/10 08:07:56;;;;;;;;;59.40;45.80;;;;;12.28;100.00;96697.56;6260381;27;96376;-58
2024/02/10 08:10:59;;;;;;;;;56.40;44.00;;;;;12.49;100.00;96715.19;6265479;27;96585;-59
2024/02/10 08:14:03;;;;;;;;;56.00;44.00;;;;;12.45;100.00;96726.88;6266912;27;96688;-60
2024/02/10 08:17:08;;;;;;;;;53.00;42.75;;;;;12.44;100.00;96720.66;6261028;27;96564;-57
2024/02/10 08:20:12;;;;;;;;;50.60;41.60;;;;;12.55;100.00;96724.06;6267420;27;96691;-58
2024/02/10 08:23:17;;;;;;;;;52.00;41.40;;;;;12.69;100.00;96721.47;6264775;27;96460;-58
2024/02/10 08:26:20;;;;;;;;;51.60;41.00;;;;;12.72;100.00;96719.00;6265394;27;96514;-58
2024/02/10 08:29:23;;;;;;;;;50.20;40.20;;;;;12.68;100.00;96712.56;6264843;27;97007;-59
2024/02/10 08:32:29;;;;;;;;;53.00;42.00;;;;;12.85;100.00;96712.09;6275015;27;96946;-60
2024/02/10 08:35:36;;;;;;;;;50.40;41.60;;;;;12.87;100.00;96736.94;6265704;27;96220;-60
2024/02/10 08:38:39;;;;;;;;;49.20;41.00;;;;;12.88;100.00;96722.31;6250764;28;96306;-61
2024/02/10 08:41:42;;;;;;;;;49.00;40.00;;;;;12.90;100.00;96717.44;6275233;27;96945;-59
2024/02/10 08:44:47;;;;;;;;;47.00;38.75;;;;;12.88;100.00;96717.72;6260939;27;96748;-59
2024/02/10 08:47:51;;;;;;;;;49.00;39.00;;;;;13.03;100.00;96719.44;6254965;27;97707;-59
2024/02/10 08:50:55;;;;;;;;;44.25;36.00;;;;;12.98;100.00;96706.78;6264670;27;96331;-58
2024/02/10 08:53:58;;;;;;;;;45.40;36.00;;;;;13.23;100.00;96730.03;6258877;27;97305;-60
2024/02/10 08:57:02;;;;;;;;;42.00;35.00;;;;;13.25;100.00;96725.13;6269226;27;96699;-58
2024/02/10 09:00:10;;;;;;;;;42.00;35.00;;;;;13.38;100.00;96718.19;6269266;27;96850;-58
2024/02/10 09:03:15;;;;;;;;;42.60;35.00;;;;;13.44;100.00;96720.53;6268822;27;96485;-57
2024/02/10 09:06:21;;;;;;;;;45.20;38.20;;;;;13.62;100.00;96724.34;6256206;27;97052;-57
2024/02/10 09:09:24;;;;;;;;;48.40;37.60;;;;;13.76;100.00;96722.50;6262948;27;98445;-57
2024/02/10 09:12:28;;;;;;;;;42.00;35.00;;;;;13.85;100.00;96722.63;6255057;27;96526;-57
2024/02/10 09:15:31;;;;;;;;;44.40;35.80;;;;;14.02;100.00;96722.91;6253478;27;97269;-57
2024/02/10 09:18:36;;;;;;;;;48.50;39.00;;;;;14.22;100.00;96719.06;6251774;27;96493;-57
2024/02/10 09:21:39;;;;;;;;;48.60;38.60;;;;;14.41;100.00;96725.25;6255160;27;96836;-57
2024/02/10 09:24:43;;;;;;;;;46.75;37.75;;;;;14.64;100.00;96732.41;6262194;27;96774;-57
2024/02/10 09:27:47;;;;;;;;;49.40;40.00;;;;;14.99;100.00;96736.34;6260640;27;96245;-57
2024/02/10 09:30:50;;;;;;;;;46.40;38.20;;;;;15.70;100.00;96725.88;6261282;27;96960;-57
2024/02/10 09:33:54;;;;;;;;;45.00;38.00;;;;;17.48;100.00;96723.59;6258376;27;96491;-56
2024/02/10 09:36:59;;;;;;;;;48.00;37.50;;;;;21.17;100.00;96733.69;6266675;27;96315;-56
2024/02/10 09:40:04;;;;;;;;;43.60;35.00;;;;;25.07;100.00;96735.31;6254081;27;96820;-57
2024/02/10 09:43:10;;;;;;;;;40.80;34.80;;;;;27.91;100.00;96732.75;6261275;27;96606;-57
2024/02/10 09:46:13;;;;;;;;;41.20;34.00;;;;;29.01;100.00;96724.91;6267599;27;96590;-57
2024/02/10 09:49:20;;;;;;;;;36.40;32.40;;;;;28.92;100.00;96730.06;6261257;27;96577;-57
2024/02/10 09:52:23;;;;;;;;;38.00;33.00;;;;;29.98;100.00;96727.28;6255436;27;96602;-57
2024/02/10 09:55:27;;;;;;;;;42.00;35.00;;;;;30.53;93.93;96718.41;6262174;27;96434;-57
2024/02/10 09:58:30;;;;;;;;;40.00;34.40;;;;;31.45;90.79;96722.56;6258991;27;96874;-57
2024/02/10 10:01:36;;;;;;;;;41.50;34.75;;;;;30.54;89.04;96715.19;6254428;27;96652;-56
2024/02/10 10:04:40;;;;;;;;;40.00;35.00;;;;;29.24;96.74;96722.56;6258227;27;97079;-57
2024/02/10 10:07:45;;;;;;;;;42.50;35.00;;;;;28.11;100.00;96729.69;6254399;27;96888;-57
2024/02/10 10:10:49;;;;;;;;;42.00;35.00;;;;;27.48;100.00;96717.81;6255730;27;96430;-57
2024/02/10 10:13:52;;;;;;;;;46.00;37.00;;;;;27.87;100.00;96720.09;6250344;27;96315;-58
2024/02/10 10:16:57;;;;;;;;;45.60;36.80;;;;;29.62;100.00;96720.97;6252934;27;98463;-59
2024/02/10 10:20:05;;;;;;;;;42.80;34.40;;;;;32.10;87.44;96704.84;6255146;27;97716;-59
2024/02/10 10:23:09;;;;;;;;;36.60;33.00;;;;;34.66;78.19;96716.31;6249640;27;96258;-59
2024/02/10 10:26:12;;;;;;;;;40.00;34.20;;;;;36.72;68.04;96709.91;6253054;27;96954;-60
2024/02/10 10:29:16;;;;;;;;;34.00;30.00;;;;;38.36;61.40;96700.47;6252735;27;98216;-60
2024/02/10 10:32:22;;;;;;;;;34.50;30.00;;;;;39.71;56.14;96692.38;6252240;27;96359;-59
2024/02/10 10:35:27;;;;;;;;;34.00;30.00;;;;;40.50;51.53;96687.72;6252364;27;96251;-59
2024/02/10 10:38:31;;;;;;;;;31.80;29.60;;;;;40.12;53.27;96680.53;6264323;27;96753;-59
2024/02/10 10:41:38;;;;;;;;;29.60;26.60;;;;;39.96;54.08;96678.00;6263868;27;96617;-60
2024/02/10 10:44:43;;;;;;;;;32.00;29.00;;;;;38.43;54.09;96672.06;6263300;27;96386;-59
2024/02/10 10:47:47;;;;;;;;;28.20;26.20;;;;;38.10;57.12;96662.44;6251064;27;96541;-59
2024/02/10 10:50:56;;;;;;;;;28.00;26.00;;;;;38.84;56.53;96651.19;6258157;27;96567;-59
2024/02/10 10:54:04;;;;;;;;;34.60;30.00;;;;;40.20;51.66;96650.75;6257582;27;97574;-59
2024/02/10 10:57:13;;;;;;;;;11.40;11.20;;;;;41.45;41.97;96643.59;6258513;27;97743;-59
2024/02/10 11:00:21;;;;;;;;;19.00;18.00;;;;;42.25;43.09;96648.34;6262209;27;96399;-59
2024/02/10 11:03:24;;;;;;;;;6.00;3.40;;;;;42.69;35.76;96642.72;6257368;27;96428;-59
2024/02/10 11:06:32;;;;;;;;;4.40;4.40;;;;;43.50;36.74;96634.47;6242535;27;96438;-59
2024/02/10 11:09:44;;;;;;;;;6.00;5.00;;;;;43.52;33.79;96629.09;6236745;27;96560;-59
2024/02/10 11:12:48;;;;;;;;;5.00;4.00;;;;;43.08;33.56;96634.09;6230766;27;97271;-59
2024/02/10 11:16:03;;;;;;;;;5.00;3.60;;;;;40.50;36.84;96626.38;6236893;27;98341;-60
2024/02/10 11:19:08;;;;;;;;;5.40;4.40;;;;;38.04;42.89;96633.31;6232403;27;96604;-58
2024/02/10 11:22:26;;;;;;;;;4.00;3.60;;;;;35.31;48.75;96624.03;6222264;27;96380;-58
2024/02/10 11:25:32;;;;;;;;;5.00;5.00;;;;;33.01;55.21;96635.09;6234657;27;96311;-58
2024/02/10 11:28:38;;;;;;;;;5.00;4.20;;;;;31.02;61.02;96625.50;6227347;27;96274;-57
2024/02/10 11:31:42;;;;;;;;;4.40;4.40;;;;;29.47;69.07;96622.25;6239075;27;96901;-57
2024/02/10 11:34:47;;;;;;;;;4.00;4.00;;;;;28.18;75.66;96633.63;6240217;27;96437;-57
2024/02/10 11:37:54;;;;;;;;;6.00;5.60;;;;;26.93;85.61;96619.38;6242769;27;96898;-57
2024/02/10 11:40:57;;;;;;;;;5.00;5.00;;;;;26.02;92.64;96634.63;6253660;27;96451;-57
2024/02/10 11:44:01;;;;;;;;;7.00;6.00;;;;;25.27;96.19;96629.25;6241493;27;96496;-57
2024/02/10 11:47:08;;;;;;;;;5.00;5.00;;;;;24.57;100.00;96637.94;6236417;27;97679;-57
2024/02/10 11:50:12;;;;;;;;;9.00;8.60;;;;;24.21;100.00;96636.50;6226895;27;96528;-57
2024/02/10 11:53:17;;;;;;;;;6.00;5.00;;;;;23.78;100.00;96647.78;6239066;27;96332;-56
2024/02/10 11:56:20;;;;;;;;;6.00;6.00;;;;;23.36;100.00;96642.91;6239673;27;96291;-56
2024/02/10 11:59:24;;;;;;;;;5.00;5.00;;;;;23.07;100.00;96651.66;6246378;27;96576;-57
2024/02/10 12:02:28;;;;;;;;;6.00;6.00;;;;;22.66;100.00;96642.00;6240472;27;96281;-56
2024/02/10 12:05:34;;;;;;;;;6.60;5.60;;;;;22.38;100.00;96636.59;6249349;27;96456;-56
2024/02/10 12:08:40;;;;;;;;;14.40;12.00;;;;;22.14;100.00;96629.28;6236286;27;96670;-56
2024/02/10 12:11:43;;;;;;;;;17.40;16.00;;;;;22.16;100.00;96643.44;6233953;27;96565;-57
2024/02/10 12:14:48;;;;;;;;;16.00;15.00;;;;;22.13;100.00;96646.09;6241686;27;96840;-57
2024/02/10 12:17:53;;;;;;;;;15.00;14.00;;;;;22.20;100.00;96651.78;6223955;27;96732;-56
2024/02/10 12:20:57;;;;;;;;;5.00;5.00;;;;;22.20;100.00;96646.28;6235081;27;96986;-57
2024/02/10 12:24:04;;;;;;;;;7.00;6.00;;;;;22.72;100.00;96649.66;6220297;27;96688;-56
2024/02/10 12:27:07;;;;;;;;;9.60;9.00;;;;;23.79;100.00;96639.19;6225248;27;96513;-57
2024/02/10 12:30:12;;;;;;;;;9.00;8.00;;;;;24.78;100.00;96649.31;6237402;27;96454;-57
2024/02/10 12:33:16;;;;;;;;;9.60;9.00;;;;;25.94;100.00;96651.50;6242390;27;96792;-55
2024/02/10 12:36:20;;;;;;;;;10.20;9.20;;;;;27.33;94.87;96648.94;6243420;27;98006;-57
2024/02/10 12:39:25;;;;;;;;;10.00;10.00;;;;;28.50;90.85;96632.88;6246695;27;96853;-57
2024/02/10 12:42:30;;;;;;;;;12.00;10.50;;;;;28.92;87.43;96646.84;6240509;27;96821;-57
2024/02/10 12:45:37;;;;;;;;;15.40;14.00;;;;;28.87;86.79;96652.00;6249681;27;97464;-56
2024/02/10 12:48:41;;;;;;;;;11.00;10.00;;;;;28.67;80.32;96662.63;6241238;27;96509;-56
2024/02/10 12:51:44;;;;;;;;;10.40;10.00;;;;;28.00;85.79;96657.66;6229478;27;96377;-57
2024/02/10 12:54:49;;;;;;;;;9.40;9.40;;;;;27.67;86.52;96652.34;6234718;27;97175;-57
2024/02/10 12:57:52;;;;;;;;;7.00;6.00;;;;;27.40;81.28;96649.78;6228774;27;96928;-56
2024/02/10 13:00:55;;;;;;;;;6.00;6.00;;;;;27.13;84.87;96645.63;6246493;27;96333;-56
2024/02/10 13:04:02;;;;;;;;;8.80;8.20;;;;;26.91;88.09;96641.13;6256121;27;96181;-56
2024/02/10 13:07:06;;;;;;;;;7.50;7.50;;;;;26.69;91.14;96632.59;6264053;27;96487;-57
2024/02/10 13:10:18;;;;;;;;;6.00;6.00;;;;;26.55;88.75;96642.72;6254898;27;96341;-56
2024/02/10 13:13:22;;;;;;;;;8.00;6.75;;;;;26.41;88.96;96645.34;6253298;27;97061;-56
2024/02/10 13:16:26;;;;;;;;;7.00;6.00;;;;;26.16;88.40;96643.06;6253790;27;99010;-56
2024/02/10 13:19:29;;;;;;;;;6.60;6.40;;;;;25.90;89.71;96634.88;6251597;27;97577;-56
2024/02/10 13:22:32;;;;;;;;;6.60;6.00;;;;;25.64;93.01;96649.53;6264379;27;96710;-56
2024/02/10 13:25:37;;;;;;;;;5.00;4.60;;;;;25.37;92.72;96654.22;6248689;27;96811;-56
2024/02/10 13:28:41;;;;;;;;;6.00;5.00;;;;;25.11;94.97;96657.00;6254023;27;96785;-56
2024/02/10 13:31:45;;;;;;;;;5.33;5.00;;;;;24.90;93.86;96649.19;6262631;27;97068;-56
2024/02/10 13:34:49;;;;;;;;;5.00;5.00;;;;;24.69;95.68;96656.25;6262959;27;96349;-56
2024/02/10 14:01:21;;;;;;;;;4.00;4.00;;;;;22.68;100.00;96684.44;6267375;27;96539;-53
2024/02/10 14:04:33;;;;;;;;;5.00;5.00;;;;;22.52;100.00;96683.63;6262141;27;96471;-54
2024/02/10 14:11:00;;;;;;;;;6.60;6.00;;;;;22.21;100.00;96678.06;6259738;27;96481;-54
2024/02/10 14:14:05;;;;;;;;;6.00;5.00;;;;;22.01;100.00;96682.63;6254535;27;97627;-55
2024/02/10 14:17:14;;;;;;;;;6.00;6.00;;;;;21.81;100.00;96669.84;6251776;27;96373;-56
2024/02/10 14:20:19;;;;;;;;;6.00;5.00;;;;;21.56;100.00;96663.63;6254320;27;96267;-54
2024/02/10 14:23:24;;;;;;;;;6.20;5.20;;;;;21.40;100.00;96665.50;6253635;27;96309;-54
2024/02/10 14:26:41;;;;;;;;;4.00;3.00;;;;;21.18;100.00;96678.53;6250522;27;97705;-54
2024/02/10 14:29:48;;;;;;;;;5.00;5.00;;;;;20.99;100.00;96672.00;6251119;27;96707;-54
2024/02/10 14:32:53;;;;;;;;;3.80;3.80;;;;;20.65;100.00;96673.25;6256927;27;96398;-55